sensor_id;sensor_type;location;lat;lon;timestamp;P1;durP1;ratioP1;P2;durP2;ratioP2
249;SDS011;109;19.806;-70.704;2022-12-20T00:01:11;14.30;;;6.70;;
249;SDS011;109;19.806;-70.704;2022-12-20T00:03:43;21.93;;;7.17;;
249;SDS011;109;19.806;-70.704;2022-12-20T00:06:10;20.60;;;6.23;;
249;SDS011;109;19.806;-70.704;2022-12-20T00:08:39;15.80;;;5.80;;
249;SDS011;109;19.806;-70.704;2022-12-20T00:11:06;11.23;;;6.50;;
249;SDS011;109;19.806;-70.704;2022-12-20T00:13:34;26.60;;;6.60;;
249;SDS011;109;19.806;-70.704;2022-12-20T00:16:11;22.70;;;7.40;;
249;SDS011;109;19.806;-70.704;2022-12-20T00:18:40;13.77;;;5.93;;
249;SDS011;109;19.806;-70.704;2022-12-20T00:21:08;14.90;;;6.40;;
249;SDS011;109;19.806;-70.704;2022-12-20T00:23:36;14.57;;;5.90;;
249;SDS011;109;19.806;-70.704;2022-12-20T00:26:04;22.40;;;7.17;;
249;SDS011;109;19.806;-70.704;2022-12-20T00:28:33;18.77;;;6.30;;
249;SDS011;109;19.806;-70.704;2022-12-20T00:31:01;15.13;;;6.40;;
249;SDS011;109;19.806;-70.704;2022-12-20T00:33:32;12.90;;;5.80;;
249;SDS011;109;19.806;-70.704;2022-12-20T00:36:00;14.10;;;7.03;;
249;SDS011;109;19.806;-70.704;2022-12-20T00:38:27;16.00;;;6.47;;
249;SDS011;109;19.806;-70.704;2022-12-20T00:41:00;13.83;;;6.57;;
249;SDS011;109;19.806;-70.704;2022-12-20T00:43:29;17.97;;;6.30;;
249;SDS011;109;19.806;-70.704;2022-12-20T00:45:56;20.50;;;6.70;;
249;SDS011;109;19.806;-70.704;2022-12-20T00:48:23;14.40;;;6.50;;
249;SDS011;109;19.806;-70.704;2022-12-20T00:50:50;15.73;;;5.80;;
249;SDS011;109;19.806;-70.704;2022-12-20T00:53:17;19.80;;;5.90;;
249;SDS011;109;19.806;-70.704;2022-12-20T00:55:44;15.53;;;5.90;;
249;SDS011;109;19.806;-70.704;2022-12-20T00:58:11;21.90;;;6.30;;
249;SDS011;109;19.806;-70.704;2022-12-20T01:00:39;23.00;;;6.80;;
249;SDS011;109;19.806;-70.704;2022-12-20T01:03:06;14.40;;;6.00;;
249;SDS011;109;19.806;-70.704;2022-12-20T01:05:33;22.17;;;8.53;;
249;SDS011;109;19.806;-70.704;2022-12-20T01:08:06;10.47;;;5.30;;
249;SDS011;109;19.806;-70.704;2022-12-20T01:10:32;14.43;;;5.47;;
249;SDS011;109;19.806;-70.704;2022-12-20T01:13:05;12.80;;;5.50;;
249;SDS011;109;19.806;-70.704;2022-12-20T01:15:32;13.23;;;5.47;;
249;SDS011;109;19.806;-70.704;2022-12-20T01:18:05;17.70;;;5.50;;
249;SDS011;109;19.806;-70.704;2022-12-20T01:20:31;15.00;;;5.00;;
249;SDS011;109;19.806;-70.704;2022-12-20T01:23:04;17.03;;;6.33;;
249;SDS011;109;19.806;-70.704;2022-12-20T01:25:30;13.90;;;5.93;;
249;SDS011;109;19.806;-70.704;2022-12-20T01:28:03;18.57;;;5.47;;
249;SDS011;109;19.806;-70.704;2022-12-20T01:30:29;9.63;;;5.23;;
249;SDS011;109;19.806;-70.704;2022-12-20T01:33:09;10.57;;;5.27;;
249;SDS011;109;19.806;-70.704;2022-12-20T01:35:54;13.13;;;5.93;;
249;SDS011;109;19.806;-70.704;2022-12-20T01:38:31;11.93;;;5.60;;
249;SDS011;109;19.806;-70.704;2022-12-20T01:41:13;13.17;;;6.27;;
249;SDS011;109;19.806;-70.704;2022-12-20T01:46:35;17.13;;;5.80;;
249;SDS011;109;19.806;-70.704;2022-12-20T01:49:06;16.10;;;5.30;;
249;SDS011;109;19.806;-70.704;2022-12-20T01:52:04;14.23;;;5.83;;
249;SDS011;109;19.806;-70.704;2022-12-20T01:55:16;14.03;;;5.37;;
249;SDS011;109;19.806;-70.704;2022-12-20T01:58:05;12.10;;;5.17;;
249;SDS011;109;19.806;-70.704;2022-12-20T02:00:48;13.30;;;5.40;;
249;SDS011;109;19.806;-70.704;2022-12-20T02:03:15;19.70;;;5.67;;
249;SDS011;109;19.806;-70.704;2022-12-20T02:05:55;13.80;;;5.33;;
249;SDS011;109;19.806;-70.704;2022-12-20T02:08:22;18.50;;;5.70;;
249;SDS011;109;19.806;-70.704;2022-12-20T02:17:03;10.43;;;5.43;;
249;SDS011;109;19.806;-70.704;2022-12-20T02:32:27;22.80;;;5.63;;
249;SDS011;109;19.806;-70.704;2022-12-20T02:35:18;16.80;;;5.70;;
249;SDS011;109;19.806;-70.704;2022-12-20T02:38:03;9.73;;;4.50;;
249;SDS011;109;19.806;-70.704;2022-12-20T02:43:47;10.70;;;6.57;;
249;SDS011;109;19.806;-70.704;2022-12-20T02:46:49;12.63;;;5.20;;
249;SDS011;109;19.806;-70.704;2022-12-20T02:49:19;11.10;;;4.90;;
249;SDS011;109;19.806;-70.704;2022-12-20T02:52:06;8.73;;;5.07;;
249;SDS011;109;19.806;-70.704;2022-12-20T02:54:43;7.10;;;4.40;;
249;SDS011;109;19.806;-70.704;2022-12-20T03:00:15;9.53;;;4.63;;
249;SDS011;109;19.806;-70.704;2022-12-20T03:02:58;7.97;;;4.43;;
249;SDS011;109;19.806;-70.704;2022-12-20T03:05:53;12.30;;;4.37;;
249;SDS011;109;19.806;-70.704;2022-12-20T03:08:34;13.50;;;5.10;;
249;SDS011;109;19.806;-70.704;2022-12-20T03:11:14;11.60;;;4.53;;
249;SDS011;109;19.806;-70.704;2022-12-20T03:13:41;17.80;;;5.00;;
249;SDS011;109;19.806;-70.704;2022-12-20T03:16:20;20.80;;;4.77;;
249;SDS011;109;19.806;-70.704;2022-12-20T03:18:47;10.63;;;4.63;;
249;SDS011;109;19.806;-70.704;2022-12-20T03:21:26;10.80;;;4.63;;
249;SDS011;109;19.806;-70.704;2022-12-20T03:23:52;12.50;;;4.90;;
249;SDS011;109;19.806;-70.704;2022-12-20T03:26:33;10.67;;;4.90;;
249;SDS011;109;19.806;-70.704;2022-12-20T03:29:00;14.00;;;4.50;;
249;SDS011;109;19.806;-70.704;2022-12-20T03:31:40;10.23;;;5.00;;
249;SDS011;109;19.806;-70.704;2022-12-20T03:34:06;11.30;;;5.20;;
249;SDS011;109;19.806;-70.704;2022-12-20T03:36:54;10.80;;;4.50;;
249;SDS011;109;19.806;-70.704;2022-12-20T03:39:28;7.20;;;4.43;;
249;SDS011;109;19.806;-70.704;2022-12-20T03:42:09;12.03;;;5.20;;
249;SDS011;109;19.806;-70.704;2022-12-20T03:44:35;11.53;;;4.50;;
249;SDS011;109;19.806;-70.704;2022-12-20T03:47:15;16.53;;;4.33;;
249;SDS011;109;19.806;-70.704;2022-12-20T03:49:45;9.83;;;4.17;;
249;SDS011;109;19.806;-70.704;2022-12-20T03:52:25;11.03;;;4.30;;
249;SDS011;109;19.806;-70.704;2022-12-20T03:54:59;10.73;;;4.27;;
249;SDS011;109;19.806;-70.704;2022-12-20T03:57:42;11.93;;;3.87;;
249;SDS011;109;19.806;-70.704;2022-12-20T04:00:24;7.73;;;4.30;;
249;SDS011;109;19.806;-70.704;2022-12-20T04:03:21;6.80;;;4.23;;
249;SDS011;109;19.806;-70.704;2022-12-20T04:06:02;12.90;;;4.93;;
249;SDS011;109;19.806;-70.704;2022-12-20T04:08:29;11.80;;;4.70;;
249;SDS011;109;19.806;-70.704;2022-12-20T04:11:09;17.20;;;4.60;;
249;SDS011;109;19.806;-70.704;2022-12-20T04:13:54;15.00;;;4.60;;
249;SDS011;109;19.806;-70.704;2022-12-20T04:16:34;11.77;;;3.80;;
249;SDS011;109;19.806;-70.704;2022-12-20T04:19:01;9.03;;;4.10;;
249;SDS011;109;19.806;-70.704;2022-12-20T04:21:44;8.53;;;3.87;;
249;SDS011;109;19.806;-70.704;2022-12-20T04:24:18;9.40;;;4.23;;
249;SDS011;109;19.806;-70.704;2022-12-20T04:27:35;17.90;;;4.00;;
249;SDS011;109;19.806;-70.704;2022-12-20T04:30:09;8.83;;;4.00;;
249;SDS011;109;19.806;-70.704;2022-12-20T04:32:50;9.33;;;3.70;;
249;SDS011;109;19.806;-70.704;2022-12-20T04:35:19;12.97;;;4.13;;
249;SDS011;109;19.806;-70.704;2022-12-20T04:38:07;5.87;;;3.53;;
249;SDS011;109;19.806;-70.704;2022-12-20T04:40:40;8.70;;;4.50;;
249;SDS011;109;19.806;-70.704;2022-12-20T04:43:23;10.97;;;4.20;;
249;SDS011;109;19.806;-70.704;2022-12-20T04:46:05;6.70;;;4.00;;
249;SDS011;109;19.806;-70.704;2022-12-20T04:48:31;7.57;;;4.10;;
249;SDS011;109;19.806;-70.704;2022-12-20T04:51:12;8.37;;;3.80;;
249;SDS011;109;19.806;-70.704;2022-12-20T04:53:39;15.07;;;4.50;;
249;SDS011;109;19.806;-70.704;2022-12-20T04:56:29;8.13;;;3.70;;
249;SDS011;109;19.806;-70.704;2022-12-20T04:59:07;12.00;;;4.20;;
249;SDS011;109;19.806;-70.704;2022-12-20T05:01:50;9.30;;;3.57;;
249;SDS011;109;19.806;-70.704;2022-12-20T05:04:34;11.60;;;4.13;;
249;SDS011;109;19.806;-70.704;2022-12-20T05:07:16;11.50;;;3.80;;
249;SDS011;109;19.806;-70.704;2022-12-20T05:09:48;12.13;;;4.90;;
249;SDS011;109;19.806;-70.704;2022-12-20T05:12:29;10.17;;;4.10;;
249;SDS011;109;19.806;-70.704;2022-12-20T05:15:06;12.13;;;4.07;;
249;SDS011;109;19.806;-70.704;2022-12-20T05:17:46;6.27;;;3.40;;
249;SDS011;109;19.806;-70.704;2022-12-20T05:20:13;11.47;;;4.37;;
249;SDS011;109;19.806;-70.704;2022-12-20T05:22:56;14.33;;;3.90;;
249;SDS011;109;19.806;-70.704;2022-12-20T05:25:52;13.60;;;3.73;;
249;SDS011;109;19.806;-70.704;2022-12-20T05:28:51;15.60;;;3.63;;
249;SDS011;109;19.806;-70.704;2022-12-20T05:31:33;12.73;;;3.50;;
249;SDS011;109;19.806;-70.704;2022-12-20T05:34:00;10.43;;;3.30;;
249;SDS011;109;19.806;-70.704;2022-12-20T05:36:52;9.03;;;3.67;;
249;SDS011;109;19.806;-70.704;2022-12-20T05:39:29;9.17;;;3.03;;
249;SDS011;109;19.806;-70.704;2022-12-20T05:42:16;11.40;;;3.57;;
249;SDS011;109;19.806;-70.704;2022-12-20T05:44:51;9.67;;;3.40;;
249;SDS011;109;19.806;-70.704;2022-12-20T05:47:41;12.40;;;3.43;;
249;SDS011;109;19.806;-70.704;2022-12-20T05:50:21;6.10;;;3.30;;
249;SDS011;109;19.806;-70.704;2022-12-20T05:53:19;11.30;;;3.10;;
249;SDS011;109;19.806;-70.704;2022-12-20T05:56:02;4.47;;;3.07;;
249;SDS011;109;19.806;-70.704;2022-12-20T05:58:37;12.03;;;3.47;;
249;SDS011;109;19.806;-70.704;2022-12-20T06:01:19;13.00;;;3.57;;
249;SDS011;109;19.806;-70.704;2022-12-20T06:03:45;7.50;;;3.33;;
249;SDS011;109;19.806;-70.704;2022-12-20T06:06:25;7.67;;;3.40;;
249;SDS011;109;19.806;-70.704;2022-12-20T06:08:52;9.50;;;3.10;;
249;SDS011;109;19.806;-70.704;2022-12-20T06:11:39;11.50;;;3.40;;
249;SDS011;109;19.806;-70.704;2022-12-20T06:14:13;12.13;;;3.37;;
249;SDS011;109;19.806;-70.704;2022-12-20T06:16:55;11.53;;;3.17;;
249;SDS011;109;19.806;-70.704;2022-12-20T06:19:22;8.53;;;3.47;;
249;SDS011;109;19.806;-70.704;2022-12-20T06:22:02;12.20;;;3.37;;
249;SDS011;109;19.806;-70.704;2022-12-20T06:24:40;11.37;;;3.30;;
249;SDS011;109;19.806;-70.704;2022-12-20T06:27:24;9.13;;;3.43;;
249;SDS011;109;19.806;-70.704;2022-12-20T06:30:06;7.83;;;3.33;;
249;SDS011;109;19.806;-70.704;2022-12-20T06:33:07;6.93;;;3.90;;
249;SDS011;109;19.806;-70.704;2022-12-20T06:35:49;11.80;;;3.10;;
249;SDS011;109;19.806;-70.704;2022-12-20T06:38:37;8.90;;;3.00;;
249;SDS011;109;19.806;-70.704;2022-12-20T06:41:17;6.83;;;2.90;;
249;SDS011;109;19.806;-70.704;2022-12-20T06:43:44;6.60;;;2.73;;
249;SDS011;109;19.806;-70.704;2022-12-20T06:46:23;8.80;;;3.20;;
249;SDS011;109;19.806;-70.704;2022-12-20T06:48:50;7.53;;;3.00;;
249;SDS011;109;19.806;-70.704;2022-12-20T06:51:31;7.23;;;3.40;;
249;SDS011;109;19.806;-70.704;2022-12-20T06:53:59;6.57;;;2.73;;
249;SDS011;109;19.806;-70.704;2022-12-20T06:56:38;10.70;;;3.20;;
249;SDS011;109;19.806;-70.704;2022-12-20T06:59:07;4.40;;;2.53;;
249;SDS011;109;19.806;-70.704;2022-12-20T07:01:48;9.90;;;2.83;;
249;SDS011;109;19.806;-70.704;2022-12-20T07:04:15;6.60;;;3.10;;
249;SDS011;109;19.806;-70.704;2022-12-20T07:06:54;6.50;;;2.70;;
249;SDS011;109;19.806;-70.704;2022-12-20T07:09:21;5.93;;;2.70;;
249;SDS011;109;19.806;-70.704;2022-12-20T07:12:01;7.23;;;2.73;;
249;SDS011;109;19.806;-70.704;2022-12-20T07:14:28;7.10;;;2.77;;
249;SDS011;109;19.806;-70.704;2022-12-20T07:17:07;5.07;;;2.53;;
249;SDS011;109;19.806;-70.704;2022-12-20T07:19:34;8.93;;;3.00;;
249;SDS011;109;19.806;-70.704;2022-12-20T07:22:14;6.87;;;2.43;;
249;SDS011;109;19.806;-70.704;2022-12-20T07:24:47;11.53;;;2.83;;
249;SDS011;109;19.806;-70.704;2022-12-20T07:27:27;10.57;;;2.67;;
249;SDS011;109;19.806;-70.704;2022-12-20T07:29:54;7.60;;;2.90;;
249;SDS011;109;19.806;-70.704;2022-12-20T07:32:33;7.80;;;2.60;;
249;SDS011;109;19.806;-70.704;2022-12-20T07:35:00;5.37;;;3.10;;
249;SDS011;109;19.806;-70.704;2022-12-20T07:37:48;10.80;;;2.97;;
249;SDS011;109;19.806;-70.704;2022-12-20T07:40:21;8.50;;;2.60;;
249;SDS011;109;19.806;-70.704;2022-12-20T07:43:01;7.43;;;2.83;;
249;SDS011;109;19.806;-70.704;2022-12-20T07:45:41;6.87;;;2.37;;
249;SDS011;109;19.806;-70.704;2022-12-20T07:48:07;13.00;;;3.07;;
249;SDS011;109;19.806;-70.704;2022-12-20T07:50:47;9.20;;;2.90;;
249;SDS011;109;19.806;-70.704;2022-12-20T07:53:14;9.33;;;2.93;;
249;SDS011;109;19.806;-70.704;2022-12-20T07:55:54;8.50;;;2.70;;
249;SDS011;109;19.806;-70.704;2022-12-20T07:58:23;19.37;;;3.33;;
249;SDS011;109;19.806;-70.704;2022-12-20T08:01:03;6.97;;;2.80;;
249;SDS011;109;19.806;-70.704;2022-12-20T08:03:31;4.37;;;2.50;;
249;SDS011;109;19.806;-70.704;2022-12-20T08:06:18;9.33;;;3.53;;
249;SDS011;109;19.806;-70.704;2022-12-20T08:08:46;9.80;;;2.93;;
249;SDS011;109;19.806;-70.704;2022-12-20T08:11:43;8.93;;;2.60;;
249;SDS011;109;19.806;-70.704;2022-12-20T08:14:18;7.17;;;2.70;;
249;SDS011;109;19.806;-70.704;2022-12-20T08:16:58;17.53;;;5.07;;
249;SDS011;109;19.806;-70.704;2022-12-20T08:19:25;11.13;;;2.80;;
249;SDS011;109;19.806;-70.704;2022-12-20T08:22:04;6.63;;;2.30;;
249;SDS011;109;19.806;-70.704;2022-12-20T08:24:33;6.73;;;3.57;;
249;SDS011;109;19.806;-70.704;2022-12-20T08:27:13;9.13;;;2.57;;
249;SDS011;109;19.806;-70.704;2022-12-20T08:29:40;11.23;;;3.10;;
249;SDS011;109;19.806;-70.704;2022-12-20T08:32:20;6.80;;;2.60;;
249;SDS011;109;19.806;-70.704;2022-12-20T08:34:47;6.73;;;3.37;;
249;SDS011;109;19.806;-70.704;2022-12-20T08:37:33;9.97;;;2.30;;
249;SDS011;109;19.806;-70.704;2022-12-20T08:40:06;11.63;;;2.40;;
249;SDS011;109;19.806;-70.704;2022-12-20T08:42:48;5.63;;;2.30;;
249;SDS011;109;19.806;-70.704;2022-12-20T08:45:15;4.50;;;2.60;;
249;SDS011;109;19.806;-70.704;2022-12-20T08:47:54;9.27;;;2.80;;
249;SDS011;109;19.806;-70.704;2022-12-20T08:50:21;8.80;;;2.87;;
249;SDS011;109;19.806;-70.704;2022-12-20T08:53:00;6.43;;;3.00;;
249;SDS011;109;19.806;-70.704;2022-12-20T08:55:40;7.07;;;3.00;;
249;SDS011;109;19.806;-70.704;2022-12-20T08:58:07;8.10;;;3.10;;
249;SDS011;109;19.806;-70.704;2022-12-20T09:00:46;3.83;;;2.30;;
249;SDS011;109;19.806;-70.704;2022-12-20T09:03:13;5.53;;;2.60;;
249;SDS011;109;19.806;-70.704;2022-12-20T09:05:52;7.83;;;3.03;;
249;SDS011;109;19.806;-70.704;2022-12-20T09:08:27;5.67;;;3.10;;
249;SDS011;109;19.806;-70.704;2022-12-20T09:11:08;13.53;;;3.07;;
249;SDS011;109;19.806;-70.704;2022-12-20T09:13:47;6.43;;;2.97;;
249;SDS011;109;19.806;-70.704;2022-12-20T09:16:31;5.33;;;2.80;;
249;SDS011;109;19.806;-70.704;2022-12-20T09:18:59;7.30;;;2.60;;
249;SDS011;109;19.806;-70.704;2022-12-20T09:21:40;12.20;;;2.80;;
249;SDS011;109;19.806;-70.704;2022-12-20T09:24:07;8.83;;;3.00;;
249;SDS011;109;19.806;-70.704;2022-12-20T09:26:48;7.03;;;3.13;;
249;SDS011;109;19.806;-70.704;2022-12-20T09:29:15;9.20;;;3.00;;
249;SDS011;109;19.806;-70.704;2022-12-20T09:31:55;5.67;;;2.80;;
249;SDS011;109;19.806;-70.704;2022-12-20T09:34:22;11.03;;;3.90;;
249;SDS011;109;19.806;-70.704;2022-12-20T09:37:08;17.70;;;3.80;;
249;SDS011;109;19.806;-70.704;2022-12-20T09:39:41;3.77;;;2.33;;
249;SDS011;109;19.806;-70.704;2022-12-20T09:42:26;9.27;;;2.60;;
249;SDS011;109;19.806;-70.704;2022-12-20T09:45:06;9.67;;;2.80;;
249;SDS011;109;19.806;-70.704;2022-12-20T09:47:48;7.00;;;2.53;;
249;SDS011;109;19.806;-70.704;2022-12-20T09:50:17;10.43;;;2.77;;
249;SDS011;109;19.806;-70.704;2022-12-20T09:53:02;12.83;;;2.90;;
249;SDS011;109;19.806;-70.704;2022-12-20T09:56:11;8.40;;;2.67;;
249;SDS011;109;19.806;-70.704;2022-12-20T09:58:57;6.93;;;2.47;;
249;SDS011;109;19.806;-70.704;2022-12-20T10:01:44;6.93;;;2.50;;
249;SDS011;109;19.806;-70.704;2022-12-20T10:13:01;9.33;;;3.03;;
249;SDS011;109;19.806;-70.704;2022-12-20T10:15:49;5.87;;;2.57;;
249;SDS011;109;19.806;-70.704;2022-12-20T10:24:02;5.70;;;2.40;;
249;SDS011;109;19.806;-70.704;2022-12-20T10:26:57;16.43;;;2.77;;
249;SDS011;109;19.806;-70.704;2022-12-20T10:29:48;9.13;;;2.57;;
249;SDS011;109;19.806;-70.704;2022-12-20T10:38:05;7.47;;;2.80;;
249;SDS011;109;19.806;-70.704;2022-12-20T10:43:45;10.40;;;2.70;;
249;SDS011;109;19.806;-70.704;2022-12-20T10:46:34;8.60;;;2.70;;
249;SDS011;109;19.806;-70.704;2022-12-20T10:49:37;8.63;;;2.80;;
249;SDS011;109;19.806;-70.704;2022-12-20T10:52:13;10.40;;;2.63;;
249;SDS011;109;19.806;-70.704;2022-12-20T10:54:54;6.13;;;2.70;;
249;SDS011;109;19.806;-70.704;2022-12-20T10:57:23;6.70;;;2.57;;
249;SDS011;109;19.806;-70.704;2022-12-20T11:00:05;7.40;;;2.57;;
249;SDS011;109;19.806;-70.704;2022-12-20T11:02:37;15.20;;;2.90;;
249;SDS011;109;19.806;-70.704;2022-12-20T11:07:39;8.83;;;3.17;;
249;SDS011;109;19.806;-70.704;2022-12-20T11:10:23;7.23;;;3.50;;
249;SDS011;109;19.806;-70.704;2022-12-20T11:13:01;11.20;;;3.33;;
249;SDS011;109;19.806;-70.704;2022-12-20T11:15:29;12.90;;;3.27;;
249;SDS011;109;19.806;-70.704;2022-12-20T11:23:35;10.30;;;2.87;;
249;SDS011;109;19.806;-70.704;2022-12-20T11:31:35;9.37;;;2.90;;
249;SDS011;109;19.806;-70.704;2022-12-20T11:42:51;12.23;;;2.80;;
249;SDS011;109;19.806;-70.704;2022-12-20T11:51:20;33.23;;;5.10;;
249;SDS011;109;19.806;-70.704;2022-12-20T11:56:57;47.67;;;5.80;;
249;SDS011;109;19.806;-70.704;2022-12-20T12:01:45;26.80;;;5.10;;
249;SDS011;109;19.806;-70.704;2022-12-20T12:04:26;19.00;;;4.70;;
249;SDS011;109;19.806;-70.704;2022-12-20T12:07:02;21.40;;;4.80;;
249;SDS011;109;19.806;-70.704;2022-12-20T12:12:46;21.40;;;4.23;;
249;SDS011;109;19.806;-70.704;2022-12-20T12:18:18;18.07;;;4.13;;
249;SDS011;109;19.806;-70.704;2022-12-20T12:20:54;15.07;;;4.00;;
249;SDS011;109;19.806;-70.704;2022-12-20T12:23:26;17.97;;;4.30;;
249;SDS011;109;19.806;-70.704;2022-12-20T12:26:11;16.40;;;4.70;;
249;SDS011;109;19.806;-70.704;2022-12-20T12:28:51;12.77;;;4.43;;
249;SDS011;109;19.806;-70.704;2022-12-20T12:31:28;18.77;;;5.37;;
249;SDS011;109;19.806;-70.704;2022-12-20T12:39:39;17.87;;;4.90;;
249;SDS011;109;19.806;-70.704;2022-12-20T12:45:03;12.20;;;4.07;;
249;SDS011;109;19.806;-70.704;2022-12-20T12:47:54;8.57;;;4.03;;
249;SDS011;109;19.806;-70.704;2022-12-20T12:50:31;19.07;;;4.10;;
249;SDS011;109;19.806;-70.704;2022-12-20T12:59:19;22.10;;;4.83;;
249;SDS011;109;19.806;-70.704;2022-12-20T13:01:46;42.67;;;4.80;;
249;SDS011;109;19.806;-70.704;2022-12-20T13:04:24;13.97;;;4.80;;
249;SDS011;109;19.806;-70.704;2022-12-20T13:06:54;12.17;;;3.90;;
249;SDS011;109;19.806;-70.704;2022-12-20T13:11:56;14.23;;;4.33;;
249;SDS011;109;19.806;-70.704;2022-12-20T13:16:53;8.73;;;3.80;;
249;SDS011;109;19.806;-70.704;2022-12-20T13:19:48;8.53;;;3.20;;
249;SDS011;109;19.806;-70.704;2022-12-20T13:24:56;12.83;;;3.73;;
249;SDS011;109;19.806;-70.704;2022-12-20T13:27:48;10.63;;;2.93;;
249;SDS011;109;19.806;-70.704;2022-12-20T13:40:44;8.37;;;3.50;;
249;SDS011;109;19.806;-70.704;2022-12-20T13:45:50;6.57;;;3.33;;
249;SDS011;109;19.806;-70.704;2022-12-20T13:48:29;6.30;;;3.03;;
249;SDS011;109;19.806;-70.704;2022-12-20T13:51:00;6.50;;;3.20;;
249;SDS011;109;19.806;-70.704;2022-12-20T13:53:27;7.97;;;3.30;;
249;SDS011;109;19.806;-70.704;2022-12-20T13:55:54;5.63;;;2.80;;
249;SDS011;109;19.806;-70.704;2022-12-20T13:58:21;4.57;;;3.00;;
249;SDS011;109;19.806;-70.704;2022-12-20T14:00:51;11.30;;;3.50;;
249;SDS011;109;19.806;-70.704;2022-12-20T14:03:23;20.80;;;3.70;;
249;SDS011;109;19.806;-70.704;2022-12-20T14:05:55;9.73;;;3.50;;
249;SDS011;109;19.806;-70.704;2022-12-20T14:08:37;12.73;;;3.90;;
249;SDS011;109;19.806;-70.704;2022-12-20T14:11:13;11.13;;;3.93;;
249;SDS011;109;19.806;-70.704;2022-12-20T14:13:57;12.93;;;4.07;;
249;SDS011;109;19.806;-70.704;2022-12-20T14:16:26;7.83;;;3.27;;
249;SDS011;109;19.806;-70.704;2022-12-20T14:21:27;8.20;;;3.23;;
249;SDS011;109;19.806;-70.704;2022-12-20T14:23:57;10.70;;;3.80;;
249;SDS011;109;19.806;-70.704;2022-12-20T14:26:26;17.27;;;3.43;;
249;SDS011;109;19.806;-70.704;2022-12-20T14:28:58;10.10;;;3.60;;
249;SDS011;109;19.806;-70.704;2022-12-20T14:34:11;24.73;;;3.77;;
249;SDS011;109;19.806;-70.704;2022-12-20T14:36:45;14.00;;;3.80;;
249;SDS011;109;19.806;-70.704;2022-12-20T14:44:31;13.80;;;3.13;;
249;SDS011;109;19.806;-70.704;2022-12-20T14:47:15;7.70;;;3.30;;
249;SDS011;109;19.806;-70.704;2022-12-20T14:49:51;9.57;;;2.80;;
249;SDS011;109;19.806;-70.704;2022-12-20T15:00:13;10.03;;;4.13;;
249;SDS011;109;19.806;-70.704;2022-12-20T15:08:19;12.37;;;3.30;;
249;SDS011;109;19.806;-70.704;2022-12-20T15:11:10;8.20;;;2.60;;
249;SDS011;109;19.806;-70.704;2022-12-20T15:13:47;22.27;;;3.47;;
249;SDS011;109;19.806;-70.704;2022-12-20T15:16:19;15.67;;;3.43;;
249;SDS011;109;19.806;-70.704;2022-12-20T15:18:51;12.50;;;3.27;;
249;SDS011;109;19.806;-70.704;2022-12-20T15:23:49;13.77;;;3.67;;
249;SDS011;109;19.806;-70.704;2022-12-20T15:26:18;10.03;;;2.97;;
249;SDS011;109;19.806;-70.704;2022-12-20T15:28:47;11.93;;;3.67;;
249;SDS011;109;19.806;-70.704;2022-12-20T15:31:14;6.57;;;2.80;;
249;SDS011;109;19.806;-70.704;2022-12-20T15:33:43;16.10;;;3.63;;
249;SDS011;109;19.806;-70.704;2022-12-20T15:36:12;13.97;;;3.43;;
249;SDS011;109;19.806;-70.704;2022-12-20T15:38:41;8.87;;;3.40;;
249;SDS011;109;19.806;-70.704;2022-12-20T15:41:09;7.77;;;2.93;;
249;SDS011;109;19.806;-70.704;2022-12-20T15:43:49;13.60;;;3.20;;
249;SDS011;109;19.806;-70.704;2022-12-20T15:46:18;9.63;;;3.07;;
249;SDS011;109;19.806;-70.704;2022-12-20T15:48:45;22.77;;;3.67;;
249;SDS011;109;19.806;-70.704;2022-12-20T15:51:32;20.03;;;5.33;;
249;SDS011;109;19.806;-70.704;2022-12-20T15:54:06;26.23;;;4.07;;
249;SDS011;109;19.806;-70.704;2022-12-20T15:56:39;20.40;;;3.50;;
249;SDS011;109;19.806;-70.704;2022-12-20T15:59:06;19.67;;;4.77;;
249;SDS011;109;19.806;-70.704;2022-12-20T16:01:34;21.03;;;4.80;;
249;SDS011;109;19.806;-70.704;2022-12-20T16:04:03;19.40;;;4.70;;
249;SDS011;109;19.806;-70.704;2022-12-20T16:06:30;16.40;;;4.67;;
249;SDS011;109;19.806;-70.704;2022-12-20T16:08:57;19.17;;;4.47;;
249;SDS011;109;19.806;-70.704;2022-12-20T16:11:27;15.77;;;4.40;;
249;SDS011;109;19.806;-70.704;2022-12-20T16:13:56;21.00;;;3.80;;
249;SDS011;109;19.806;-70.704;2022-12-20T16:16:26;20.87;;;4.00;;
249;SDS011;109;19.806;-70.704;2022-12-20T16:18:58;21.37;;;4.07;;
249;SDS011;109;19.806;-70.704;2022-12-20T16:21:26;21.63;;;3.60;;
249;SDS011;109;19.806;-70.704;2022-12-20T16:23:56;13.27;;;3.10;;
249;SDS011;109;19.806;-70.704;2022-12-20T16:26:24;21.17;;;4.10;;
249;SDS011;109;19.806;-70.704;2022-12-20T16:28:51;14.63;;;3.30;;
249;SDS011;109;19.806;-70.704;2022-12-20T16:31:27;22.73;;;3.83;;
249;SDS011;109;19.806;-70.704;2022-12-20T16:33:58;16.03;;;4.13;;
249;SDS011;109;19.806;-70.704;2022-12-20T16:36:27;10.00;;;3.33;;
249;SDS011;109;19.806;-70.704;2022-12-20T16:38:55;22.37;;;4.20;;
249;SDS011;109;19.806;-70.704;2022-12-20T16:41:23;100.57;;;5.13;;
249;SDS011;109;19.806;-70.704;2022-12-20T16:43:55;131.10;;;10.87;;
249;SDS011;109;19.806;-70.704;2022-12-20T16:46:24;32.20;;;3.70;;
249;SDS011;109;19.806;-70.704;2022-12-20T16:48:52;30.13;;;4.53;;
249;SDS011;109;19.806;-70.704;2022-12-20T16:51:25;16.43;;;3.30;;
249;SDS011;109;19.806;-70.704;2022-12-20T16:54:00;14.93;;;4.27;;
249;SDS011;109;19.806;-70.704;2022-12-20T16:56:28;11.17;;;4.00;;
249;SDS011;109;19.806;-70.704;2022-12-20T16:58:55;18.80;;;4.67;;
249;SDS011;109;19.806;-70.704;2022-12-20T17:01:23;14.20;;;3.80;;
249;SDS011;109;19.806;-70.704;2022-12-20T17:03:54;31.93;;;4.10;;
249;SDS011;109;19.806;-70.704;2022-12-20T17:06:21;18.63;;;3.70;;
249;SDS011;109;19.806;-70.704;2022-12-20T17:08:48;25.17;;;4.40;;
249;SDS011;109;19.806;-70.704;2022-12-20T17:11:16;16.27;;;3.93;;
249;SDS011;109;19.806;-70.704;2022-12-20T17:13:45;18.20;;;4.13;;
249;SDS011;109;19.806;-70.704;2022-12-20T17:16:13;23.27;;;4.17;;
249;SDS011;109;19.806;-70.704;2022-12-20T17:18:43;19.03;;;4.10;;
249;SDS011;109;19.806;-70.704;2022-12-20T17:21:22;18.30;;;4.30;;
249;SDS011;109;19.806;-70.704;2022-12-20T17:23:54;23.97;;;4.00;;
249;SDS011;109;19.806;-70.704;2022-12-20T17:26:22;36.80;;;5.57;;
249;SDS011;109;19.806;-70.704;2022-12-20T17:28:49;19.70;;;4.23;;
249;SDS011;109;19.806;-70.704;2022-12-20T17:31:20;27.80;;;4.70;;
249;SDS011;109;19.806;-70.704;2022-12-20T17:33:52;25.40;;;4.70;;
249;SDS011;109;19.806;-70.704;2022-12-20T17:36:19;19.83;;;3.80;;
249;SDS011;109;19.806;-70.704;2022-12-20T17:38:45;29.83;;;4.33;;
249;SDS011;109;19.806;-70.704;2022-12-20T17:43:55;26.17;;;5.37;;
249;SDS011;109;19.806;-70.704;2022-12-20T17:46:22;25.10;;;5.07;;
249;SDS011;109;19.806;-70.704;2022-12-20T17:48:50;21.10;;;3.37;;
249;SDS011;109;19.806;-70.704;2022-12-20T17:51:18;33.43;;;5.33;;
249;SDS011;109;19.806;-70.704;2022-12-20T17:53:48;24.87;;;4.03;;
249;SDS011;109;19.806;-70.704;2022-12-20T17:56:18;44.00;;;5.60;;
249;SDS011;109;19.806;-70.704;2022-12-20T17:58:47;14.00;;;3.67;;
249;SDS011;109;19.806;-70.704;2022-12-20T18:03:46;15.10;;;3.07;;
249;SDS011;109;19.806;-70.704;2022-12-20T18:06:13;13.13;;;3.07;;
249;SDS011;109;19.806;-70.704;2022-12-20T18:08:39;17.43;;;3.90;;
249;SDS011;109;19.806;-70.704;2022-12-20T18:11:07;26.33;;;4.40;;
249;SDS011;109;19.806;-70.704;2022-12-20T18:13:35;15.07;;;4.03;;
249;SDS011;109;19.806;-70.704;2022-12-20T18:16:05;22.43;;;4.30;;
249;SDS011;109;19.806;-70.704;2022-12-20T18:18:32;20.43;;;3.40;;
249;SDS011;109;19.806;-70.704;2022-12-20T18:21:00;35.93;;;3.90;;
249;SDS011;109;19.806;-70.704;2022-12-20T18:23:33;21.23;;;4.13;;
249;SDS011;109;19.806;-70.704;2022-12-20T18:26:05;26.67;;;4.10;;
249;SDS011;109;19.806;-70.704;2022-12-20T18:28:33;24.00;;;4.20;;
249;SDS011;109;19.806;-70.704;2022-12-20T18:31:01;23.40;;;4.10;;